sensor_id;sensor_type;location;lat;lon;timestamp;P1;durP1;ratioP1;P2;durP2;ratioP2
65328;SDS011;51941;52.210;5.158;2023-07-20T00:01:50;1.00;;;0.90;;
65328;SDS011;51941;52.210;5.158;2023-07-20T00:04:17;1.70;;;1.10;;
65328;SDS011;51941;52.210;5.158;2023-07-20T00:06:44;1.10;;;0.90;;
65328;SDS011;51941;52.210;5.158;2023-07-20T00:09:11;0.77;;;0.75;;
65328;SDS011;51941;52.210;5.158;2023-07-20T00:11:38;1.92;;;0.70;;
65328;SDS011;51941;52.210;5.158;2023-07-20T00:14:05;0.75;;;0.70;;
65328;SDS011;51941;52.210;5.158;2023-07-20T00:16:32;0.60;;;0.60;;
65328;SDS011;51941;52.210;5.158;2023-07-20T00:19:01;1.67;;;0.70;;
65328;SDS011;51941;52.210;5.158;2023-07-20T00:21:28;1.52;;;0.80;;
65328;SDS011;51941;52.210;5.158;2023-07-20T00:23:55;1.17;;;0.60;;
65328;SDS011;51941;52.210;5.158;2023-07-20T00:26:21;1.20;;;0.70;;
65328;SDS011;51941;52.210;5.158;2023-07-20T00:28:49;0.82;;;0.60;;
65328;SDS011;51941;52.210;5.158;2023-07-20T00:31:18;1.17;;;0.90;;
65328;SDS011;51941;52.210;5.158;2023-07-20T00:33:45;0.90;;;0.80;;
65328;SDS011;51941;52.210;5.158;2023-07-20T00:36:14;1.15;;;0.90;;
65328;SDS011;51941;52.210;5.158;2023-07-20T00:38:42;0.55;;;0.55;;
65328;SDS011;51941;52.210;5.158;2023-07-20T00:41:08;0.90;;;0.70;;
65328;SDS011;51941;52.210;5.158;2023-07-20T00:43:35;1.17;;;0.90;;
65328;SDS011;51941;52.210;5.158;2023-07-20T00:46:02;1.33;;;0.73;;
65328;SDS011;51941;52.210;5.158;2023-07-20T00:48:30;1.00;;;0.88;;
65328;SDS011;51941;52.210;5.158;2023-07-20T00:50:57;1.35;;;0.70;;
65328;SDS011;51941;52.210;5.158;2023-07-20T00:53:30;1.13;;;0.80;;
65328;SDS011;51941;52.210;5.158;2023-07-20T00:55:57;1.38;;;1.05;;
65328;SDS011;51941;52.210;5.158;2023-07-20T00:58:24;1.27;;;1.10;;
65328;SDS011;51941;52.210;5.158;2023-07-20T01:00:51;0.98;;;0.98;;
65328;SDS011;51941;52.210;5.158;2023-07-20T01:03:18;1.10;;;0.90;;
65328;SDS011;51941;52.210;5.158;2023-07-20T01:05:47;1.23;;;1.02;;
65328;SDS011;51941;52.210;5.158;2023-07-20T01:08:30;1.92;;;1.10;;
65328;SDS011;51941;52.210;5.158;2023-07-20T01:11:03;1.75;;;1.10;;
65328;SDS011;51941;52.210;5.158;2023-07-20T01:13:37;1.00;;;0.90;;
65328;SDS011;51941;52.210;5.158;2023-07-20T01:16:04;1.83;;;0.90;;
65328;SDS011;51941;52.210;5.158;2023-07-20T01:18:31;2.00;;;1.15;;
65328;SDS011;51941;52.210;5.158;2023-07-20T01:20:59;2.70;;;1.20;;
65328;SDS011;51941;52.210;5.158;2023-07-20T01:26:38;2.30;;;1.10;;
65328;SDS011;51941;52.210;5.158;2023-07-20T01:29:34;1.33;;;1.10;;
65328;SDS011;51941;52.210;5.158;2023-07-20T01:32:11;2.15;;;1.08;;
65328;SDS011;51941;52.210;5.158;2023-07-20T01:34:38;1.38;;;1.27;;
65328;SDS011;51941;52.210;5.158;2023-07-20T01:37:08;1.48;;;1.10;;
65328;SDS011;51941;52.210;5.158;2023-07-20T01:39:36;2.00;;;1.10;;
65328;SDS011;51941;52.210;5.158;2023-07-20T01:42:05;2.63;;;1.30;;
65328;SDS011;51941;52.210;5.158;2023-07-20T01:44:32;2.58;;;1.55;;
65328;SDS011;51941;52.210;5.158;2023-07-20T01:46:59;1.35;;;1.20;;
65328;SDS011;51941;52.210;5.158;2023-07-20T01:49:27;1.30;;;1.20;;
65328;SDS011;51941;52.210;5.158;2023-07-20T01:51:53;3.47;;;1.42;;
65328;SDS011;51941;52.210;5.158;2023-07-20T01:54:20;3.38;;;1.10;;
65328;SDS011;51941;52.210;5.158;2023-07-20T01:56:48;1.70;;;1.20;;
65328;SDS011;51941;52.210;5.158;2023-07-20T01:59:14;1.50;;;1.40;;
65328;SDS011;51941;52.210;5.158;2023-07-20T02:01:41;4.57;;;1.58;;
65328;SDS011;51941;52.210;5.158;2023-07-20T02:04:08;2.65;;;1.60;;
65328;SDS011;51941;52.210;5.158;2023-07-20T02:06:36;2.75;;;1.27;;
65328;SDS011;51941;52.210;5.158;2023-07-20T02:09:03;1.60;;;1.45;;
65328;SDS011;51941;52.210;5.158;2023-07-20T02:11:30;2.47;;;1.40;;
65328;SDS011;51941;52.210;5.158;2023-07-20T02:13:57;2.15;;;1.33;;
65328;SDS011;51941;52.210;5.158;2023-07-20T02:16:24;2.30;;;1.30;;
65328;SDS011;51941;52.210;5.158;2023-07-20T02:18:51;1.50;;;1.30;;
65328;SDS011;51941;52.210;5.158;2023-07-20T02:21:18;2.78;;;1.40;;
65328;SDS011;51941;52.210;5.158;2023-07-20T02:23:46;2.33;;;1.30;;
65328;SDS011;51941;52.210;5.158;2023-07-20T02:26:13;3.65;;;1.40;;
65328;SDS011;51941;52.210;5.158;2023-07-20T02:28:40;1.88;;;1.35;;
65328;SDS011;51941;52.210;5.158;2023-07-20T02:31:07;1.63;;;1.40;;
65328;SDS011;51941;52.210;5.158;2023-07-20T02:33:34;2.38;;;1.20;;
65328;SDS011;51941;52.210;5.158;2023-07-20T02:36:00;2.33;;;1.00;;
65328;SDS011;51941;52.210;5.158;2023-07-20T02:38:27;0.93;;;0.93;;
65328;SDS011;51941;52.210;5.158;2023-07-20T02:40:55;1.63;;;1.10;;
65328;SDS011;51941;52.210;5.158;2023-07-20T02:43:22;1.73;;;1.02;;
65328;SDS011;51941;52.210;5.158;2023-07-20T02:45:48;2.13;;;0.90;;
65328;SDS011;51941;52.210;5.158;2023-07-20T02:48:16;1.55;;;1.00;;
65328;SDS011;51941;52.210;5.158;2023-07-20T02:50:44;1.67;;;0.90;;
65328;SDS011;51941;52.210;5.158;2023-07-20T02:53:10;1.77;;;1.00;;
65328;SDS011;51941;52.210;5.158;2023-07-20T02:55:37;1.00;;;0.90;;
65328;SDS011;51941;52.210;5.158;2023-07-20T02:58:05;1.33;;;0.90;;
65328;SDS011;51941;52.210;5.158;2023-07-20T03:00:32;1.10;;;1.00;;
65328;SDS011;51941;52.210;5.158;2023-07-20T03:02:59;1.52;;;1.10;;
65328;SDS011;51941;52.210;5.158;2023-07-20T03:05:26;1.70;;;1.00;;
65328;SDS011;51941;52.210;5.158;2023-07-20T03:07:53;1.10;;;1.00;;
65328;SDS011;51941;52.210;5.158;2023-07-20T03:10:19;1.75;;;0.98;;
65328;SDS011;51941;52.210;5.158;2023-07-20T03:12:46;1.75;;;0.95;;
65328;SDS011;51941;52.210;5.158;2023-07-20T03:15:14;2.22;;;1.27;;
65328;SDS011;51941;52.210;5.158;2023-07-20T03:17:42;1.30;;;1.10;;
65328;SDS011;51941;52.210;5.158;2023-07-20T03:20:09;3.15;;;1.30;;
65328;SDS011;51941;52.210;5.158;2023-07-20T03:22:39;1.23;;;1.10;;
65328;SDS011;51941;52.210;5.158;2023-07-20T03:25:06;1.20;;;1.10;;
65328;SDS011;51941;52.210;5.158;2023-07-20T03:27:34;2.83;;;1.27;;
65328;SDS011;51941;52.210;5.158;2023-07-20T03:30:01;1.45;;;1.20;;
65328;SDS011;51941;52.210;5.158;2023-07-20T03:32:29;1.30;;;1.20;;
65328;SDS011;51941;52.210;5.158;2023-07-20T03:34:56;1.60;;;1.15;;
65328;SDS011;51941;52.210;5.158;2023-07-20T03:37:23;2.08;;;1.55;;
65328;SDS011;51941;52.210;5.158;2023-07-20T03:39:50;3.08;;;1.45;;
65328;SDS011;51941;52.210;5.158;2023-07-20T03:42:16;1.50;;;1.33;;
65328;SDS011;51941;52.210;5.158;2023-07-20T03:44:43;1.60;;;1.50;;
65328;SDS011;51941;52.210;5.158;2023-07-20T03:47:10;2.05;;;1.40;;
65328;SDS011;51941;52.210;5.158;2023-07-20T03:49:39;2.95;;;1.50;;
65328;SDS011;51941;52.210;5.158;2023-07-20T03:52:06;2.85;;;1.48;;
65328;SDS011;51941;52.210;5.158;2023-07-20T03:54:33;2.15;;;1.80;;
65328;SDS011;51941;52.210;5.158;2023-07-20T03:57:00;2.92;;;1.50;;
65328;SDS011;51941;52.210;5.158;2023-07-20T03:59:30;1.60;;;1.50;;
65328;SDS011;51941;52.210;5.158;2023-07-20T04:01:56;2.15;;;1.95;;
65328;SDS011;51941;52.210;5.158;2023-07-20T04:04:23;2.78;;;1.58;;
65328;SDS011;51941;52.210;5.158;2023-07-20T04:06:51;1.98;;;1.70;;
65328;SDS011;51941;52.210;5.158;2023-07-20T04:09:19;3.83;;;2.00;;
65328;SDS011;51941;52.210;5.158;2023-07-20T04:11:45;3.25;;;1.65;;
65328;SDS011;51941;52.210;5.158;2023-07-20T04:14:12;3.35;;;2.38;;
65328;SDS011;51941;52.210;5.158;2023-07-20T04:16:39;3.60;;;2.00;;
65328;SDS011;51941;52.210;5.158;2023-07-20T04:19:06;2.20;;;2.00;;
65328;SDS011;51941;52.210;5.158;2023-07-20T04:21:39;2.40;;;2.08;;
65328;SDS011;51941;52.210;5.158;2023-07-20T04:24:08;3.80;;;2.63;;
65328;SDS011;51941;52.210;5.158;2023-07-20T04:26:36;3.08;;;2.78;;
65328;SDS011;51941;52.210;5.158;2023-07-20T04:29:03;4.88;;;2.97;;
65328;SDS011;51941;52.210;5.158;2023-07-20T04:31:33;2.85;;;2.65;;
65328;SDS011;51941;52.210;5.158;2023-07-20T04:34:02;3.75;;;2.83;;
65328;SDS011;51941;52.210;5.158;2023-07-20T04:36:29;3.75;;;2.33;;
65328;SDS011;51941;52.210;5.158;2023-07-20T04:38:56;4.78;;;2.97;;
65328;SDS011;51941;52.210;5.158;2023-07-20T04:41:24;2.60;;;2.40;;
65328;SDS011;51941;52.210;5.158;2023-07-20T04:43:54;2.33;;;2.13;;
65328;SDS011;51941;52.210;5.158;2023-07-20T04:46:25;2.78;;;2.53;;
65328;SDS011;51941;52.210;5.158;2023-07-20T04:48:52;3.70;;;2.22;;
65328;SDS011;51941;52.210;5.158;2023-07-20T04:51:19;2.92;;;1.90;;
65328;SDS011;51941;52.210;5.158;2023-07-20T04:53:50;2.42;;;1.85;;
65328;SDS011;51941;52.210;5.158;2023-07-20T04:56:17;2.20;;;1.88;;
65328;SDS011;51941;52.210;5.158;2023-07-20T04:58:46;3.67;;;1.63;;
65328;SDS011;51941;52.210;5.158;2023-07-20T05:01:13;2.65;;;1.30;;
65328;SDS011;51941;52.210;5.158;2023-07-20T05:03:40;2.35;;;1.13;;
65328;SDS011;51941;52.210;5.158;2023-07-20T05:06:08;4.15;;;1.58;;
65328;SDS011;51941;52.210;5.158;2023-07-20T05:08:35;2.60;;;1.50;;
65328;SDS011;51941;52.210;5.158;2023-07-20T05:11:03;2.35;;;1.15;;
65328;SDS011;51941;52.210;5.158;2023-07-20T05:13:30;1.35;;;0.95;;
65328;SDS011;51941;52.210;5.158;2023-07-20T05:15:59;1.58;;;1.02;;
65328;SDS011;51941;52.210;5.158;2023-07-20T05:18:26;1.85;;;1.30;;
65328;SDS011;51941;52.210;5.158;2023-07-20T05:20:53;1.35;;;0.90;;
65328;SDS011;51941;52.210;5.158;2023-07-20T05:23:20;1.70;;;1.60;;
65328;SDS011;51941;52.210;5.158;2023-07-20T05:25:47;2.72;;;1.20;;
65328;SDS011;51941;52.210;5.158;2023-07-20T05:28:20;2.70;;;0.75;;
65328;SDS011;51941;52.210;5.158;2023-07-20T05:30:47;1.73;;;0.70;;
65328;SDS011;51941;52.210;5.158;2023-07-20T05:33:15;2.25;;;0.70;;
65328;SDS011;51941;52.210;5.158;2023-07-20T05:35:42;1.58;;;0.80;;
65328;SDS011;51941;52.210;5.158;2023-07-20T05:38:09;2.65;;;0.82;;
65328;SDS011;51941;52.210;5.158;2023-07-20T05:40:36;2.80;;;0.90;;
65328;SDS011;51941;52.210;5.158;2023-07-20T05:43:03;6.03;;;0.63;;
65328;SDS011;51941;52.210;5.158;2023-07-20T05:45:30;2.65;;;0.50;;
65328;SDS011;51941;52.210;5.158;2023-07-20T05:47:57;3.42;;;0.60;;
65328;SDS011;51941;52.210;5.158;2023-07-20T05:50:25;1.90;;;0.60;;
65328;SDS011;51941;52.210;5.158;2023-07-20T05:52:54;0.75;;;0.40;;
65328;SDS011;51941;52.210;5.158;2023-07-20T05:55:21;1.08;;;0.55;;
65328;SDS011;51941;52.210;5.158;2023-07-20T05:57:48;0.80;;;0.50;;
65328;SDS011;51941;52.210;5.158;2023-07-20T06:00:15;0.98;;;0.50;;
65328;SDS011;51941;52.210;5.158;2023-07-20T06:05:11;3.65;;;0.50;;
65328;SDS011;51941;52.210;5.158;2023-07-20T06:07:39;2.85;;;0.38;;
65328;SDS011;51941;52.210;5.158;2023-07-20T06:10:06;1.20;;;0.50;;
65328;SDS011;51941;52.210;5.158;2023-07-20T06:12:33;1.58;;;0.60;;
65328;SDS011;51941;52.210;5.158;2023-07-20T06:15:02;1.60;;;0.50;;
65328;SDS011;51941;52.210;5.158;2023-07-20T06:17:29;0.85;;;0.40;;
65328;SDS011;51941;52.210;5.158;2023-07-20T06:19:56;2.95;;;0.40;;
65328;SDS011;51941;52.210;5.158;2023-07-20T06:22:22;2.30;;;0.40;;
65328;SDS011;51941;52.210;5.158;2023-07-20T06:24:51;1.08;;;0.55;;
65328;SDS011;51941;52.210;5.158;2023-07-20T06:27:21;1.08;;;0.40;;
65328;SDS011;51941;52.210;5.158;2023-07-20T06:29:48;1.08;;;0.40;;
65328;SDS011;51941;52.210;5.158;2023-07-20T06:32:15;0.77;;;0.40;;
65328;SDS011;51941;52.210;5.158;2023-07-20T06:34:41;2.90;;;0.50;;
65328;SDS011;51941;52.210;5.158;2023-07-20T06:37:08;1.42;;;0.35;;
65328;SDS011;51941;52.210;5.158;2023-07-20T06:39:35;3.15;;;0.40;;
65328;SDS011;51941;52.210;5.158;2023-07-20T06:42:03;0.73;;;0.30;;
65328;SDS011;51941;52.210;5.158;2023-07-20T06:44:30;1.50;;;0.55;;
65328;SDS011;51941;52.210;5.158;2023-07-20T06:46:57;1.80;;;0.40;;
65328;SDS011;51941;52.210;5.158;2023-07-20T06:49:25;0.70;;;0.35;;
65328;SDS011;51941;52.210;5.158;2023-07-20T06:51:52;2.10;;;0.30;;
65328;SDS011;51941;52.210;5.158;2023-07-20T06:54:19;0.52;;;0.28;;
65328;SDS011;51941;52.210;5.158;2023-07-20T06:56:46;1.00;;;0.30;;
65328;SDS011;51941;52.210;5.158;2023-07-20T06:59:14;1.38;;;0.40;;
65328;SDS011;51941;52.210;5.158;2023-07-20T07:01:41;1.92;;;0.50;;
65328;SDS011;51941;52.210;5.158;2023-07-20T07:04:07;3.00;;;0.40;;
65328;SDS011;51941;52.210;5.158;2023-07-20T07:06:34;0.95;;;0.40;;
65328;SDS011;51941;52.210;5.158;2023-07-20T07:09:02;0.68;;;0.30;;
65328;SDS011;51941;52.210;5.158;2023-07-20T07:11:29;1.25;;;0.30;;
65328;SDS011;51941;52.210;5.158;2023-07-20T07:13:55;1.00;;;0.30;;
65328;SDS011;51941;52.210;5.158;2023-07-20T07:16:24;0.88;;;0.40;;
65328;SDS011;51941;52.210;5.158;2023-07-20T07:18:51;1.20;;;0.30;;
65328;SDS011;51941;52.210;5.158;2023-07-20T07:21:17;0.20;;;0.17;;
65328;SDS011;51941;52.210;5.158;2023-07-20T07:23:44;2.05;;;0.40;;
65328;SDS011;51941;52.210;5.158;2023-07-20T07:26:12;0.65;;;0.30;;
65328;SDS011;51941;52.210;5.158;2023-07-20T07:28:39;0.73;;;0.38;;
65328;SDS011;51941;52.210;5.158;2023-07-20T07:31:05;0.77;;;0.40;;
65328;SDS011;51941;52.210;5.158;2023-07-20T07:33:37;1.08;;;0.40;;
65328;SDS011;51941;52.210;5.158;2023-07-20T07:36:04;0.60;;;0.30;;
65328;SDS011;51941;52.210;5.158;2023-07-20T07:38:31;1.45;;;0.28;;
65328;SDS011;51941;52.210;5.158;2023-07-20T07:40:58;1.42;;;0.32;;
65328;SDS011;51941;52.210;5.158;2023-07-20T07:43:25;0.57;;;0.20;;
65328;SDS011;51941;52.210;5.158;2023-07-20T07:45:53;0.50;;;0.20;;
65328;SDS011;51941;52.210;5.158;2023-07-20T07:48:22;0.30;;;0.20;;
65328;SDS011;51941;52.210;5.158;2023-07-20T07:50:51;0.20;;;0.20;;
65328;SDS011;51941;52.210;5.158;2023-07-20T07:53:19;0.52;;;0.30;;
65328;SDS011;51941;52.210;5.158;2023-07-20T07:55:47;1.40;;;0.30;;
65328;SDS011;51941;52.210;5.158;2023-07-20T07:58:14;1.02;;;0.30;;
65328;SDS011;51941;52.210;5.158;2023-07-20T08:00:41;0.70;;;0.20;;
65328;SDS011;51941;52.210;5.158;2023-07-20T08:03:09;0.60;;;0.30;;
65328;SDS011;51941;52.210;5.158;2023-07-20T08:05:36;1.60;;;0.20;;
65328;SDS011;51941;52.210;5.158;2023-07-20T08:08:05;1.05;;;0.30;;
65328;SDS011;51941;52.210;5.158;2023-07-20T08:10:32;2.40;;;0.30;;
65328;SDS011;51941;52.210;5.158;2023-07-20T08:12:58;0.45;;;0.30;;
65328;SDS011;51941;52.210;5.158;2023-07-20T08:15:26;1.90;;;0.30;;
65328;SDS011;51941;52.210;5.158;2023-07-20T08:17:52;0.47;;;0.30;;
65328;SDS011;51941;52.210;5.158;2023-07-20T08:20:19;0.45;;;0.30;;
65328;SDS011;51941;52.210;5.158;2023-07-20T08:22:51;1.08;;;0.22;;
65328;SDS011;51941;52.210;5.158;2023-07-20T08:25:19;0.60;;;0.22;;
65328;SDS011;51941;52.210;5.158;2023-07-20T08:27:46;0.73;;;0.28;;
65328;SDS011;51941;52.210;5.158;2023-07-20T08:30:13;0.73;;;0.30;;
65328;SDS011;51941;52.210;5.158;2023-07-20T08:32:40;1.40;;;0.25;;
65328;SDS011;51941;52.210;5.158;2023-07-20T08:35:07;1.45;;;0.30;;
65328;SDS011;51941;52.210;5.158;2023-07-20T08:37:34;0.90;;;0.30;;
65328;SDS011;51941;52.210;5.158;2023-07-20T08:40:01;0.60;;;0.20;;
65328;SDS011;51941;52.210;5.158;2023-07-20T08:42:35;0.93;;;0.30;;
65328;SDS011;51941;52.210;5.158;2023-07-20T08:45:04;0.70;;;0.30;;
65328;SDS011;51941;52.210;5.158;2023-07-20T08:47:34;0.60;;;0.20;;
65328;SDS011;51941;52.210;5.158;2023-07-20T08:50:02;0.93;;;0.30;;
65328;SDS011;51941;52.210;5.158;2023-07-20T08:52:32;0.30;;;0.30;;
65328;SDS011;51941;52.210;5.158;2023-07-20T08:55:00;1.05;;;0.25;;
65328;SDS011;51941;52.210;5.158;2023-07-20T08:57:28;0.68;;;0.30;;
65328;SDS011;51941;52.210;5.158;2023-07-20T09:00:01;0.30;;;0.20;;
65328;SDS011;51941;52.210;5.158;2023-07-20T09:02:31;0.88;;;0.30;;
65328;SDS011;51941;52.210;5.158;2023-07-20T09:05:04;0.38;;;0.25;;
65328;SDS011;51941;52.210;5.158;2023-07-20T09:07:31;1.05;;;0.30;;
65328;SDS011;51941;52.210;5.158;2023-07-20T09:09:58;0.57;;;0.15;;
65328;SDS011;51941;52.210;5.158;2023-07-20T09:12:30;0.35;;;0.20;;
65328;SDS011;51941;52.210;5.158;2023-07-20T09:14:57;5.93;;;0.45;;
65328;SDS011;51941;52.210;5.158;2023-07-20T09:17:26;0.20;;;0.10;;
65328;SDS011;51941;52.210;5.158;2023-07-20T09:19:53;0.28;;;0.20;;
65328;SDS011;51941;52.210;5.158;2023-07-20T09:22:20;0.17;;;0.15;;
65328;SDS011;51941;52.210;5.158;2023-07-20T09:24:46;1.70;;;0.30;;
65328;SDS011;51941;52.210;5.158;2023-07-20T09:27:13;0.98;;;0.30;;
65328;SDS011;51941;52.210;5.158;2023-07-20T09:29:49;0.25;;;0.20;;
65328;SDS011;51941;52.210;5.158;2023-07-20T09:32:20;1.15;;;0.20;;
65328;SDS011;51941;52.210;5.158;2023-07-20T09:34:50;0.63;;;0.28;;
65328;SDS011;51941;52.210;5.158;2023-07-20T09:37:19;0.43;;;0.20;;
65328;SDS011;51941;52.210;5.158;2023-07-20T09:39:47;0.43;;;0.20;;
65328;SDS011;51941;52.210;5.158;2023-07-20T09:42:14;1.45;;;0.40;;
65328;SDS011;51941;52.210;5.158;2023-07-20T09:44:43;1.08;;;0.40;;
65328;SDS011;51941;52.210;5.158;2023-07-20T09:47:10;0.82;;;0.68;;
65328;SDS011;51941;52.210;5.158;2023-07-20T09:49:39;0.40;;;0.30;;
65328;SDS011;51941;52.210;5.158;2023-07-20T09:52:08;2.00;;;0.40;;
65328;SDS011;51941;52.210;5.158;2023-07-20T09:54:37;0.65;;;0.40;;
65328;SDS011;51941;52.210;5.158;2023-07-20T09:57:05;1.13;;;0.40;;
65328;SDS011;51941;52.210;5.158;2023-07-20T09:59:33;1.10;;;0.30;;
65328;SDS011;51941;52.210;5.158;2023-07-20T10:02:01;0.70;;;0.40;;
65328;SDS011;51941;52.210;5.158;2023-07-20T10:04:31;0.63;;;0.40;;
65328;SDS011;51941;52.210;5.158;2023-07-20T10:09:32;3.88;;;0.60;;
65328;SDS011;51941;52.210;5.158;2023-07-20T10:12:05;0.40;;;0.30;;
65328;SDS011;51941;52.210;5.158;2023-07-20T10:14:36;0.40;;;0.30;;
65328;SDS011;51941;52.210;5.158;2023-07-20T10:17:09;0.50;;;0.30;;
65328;SDS011;51941;52.210;5.158;2023-07-20T10:19:42;0.40;;;0.40;;
65328;SDS011;51941;52.210;5.158;2023-07-20T10:22:12;0.70;;;0.40;;
65328;SDS011;51941;52.210;5.158;2023-07-20T10:24:44;1.10;;;0.20;;
65328;SDS011;51941;52.210;5.158;2023-07-20T10:27:12;0.90;;;0.50;;
65328;SDS011;51941;52.210;5.158;2023-07-20T10:29:39;0.45;;;0.40;;
65328;SDS011;51941;52.210;5.158;2023-07-20T10:32:07;0.85;;;0.40;;
65328;SDS011;51941;52.210;5.158;2023-07-20T10:34:35;1.58;;;0.60;;
65328;SDS011;51941;52.210;5.158;2023-07-20T10:37:02;1.02;;;0.43;;
65328;SDS011;51941;52.210;5.158;2023-07-20T10:39:30;1.08;;;0.40;;
65328;SDS011;51941;52.210;5.158;2023-07-20T10:42:03;2.72;;;0.50;;
65328;SDS011;51941;52.210;5.158;2023-07-20T10:44:33;1.75;;;0.50;;
65328;SDS011;51941;52.210;5.158;2023-07-20T10:47:00;0.45;;;0.40;;
65328;SDS011;51941;52.210;5.158;2023-07-20T10:49:28;0.77;;;0.50;;
65328;SDS011;51941;52.210;5.158;2023-07-20T10:51:58;2.13;;;0.50;;
65328;SDS011;51941;52.210;5.158;2023-07-20T10:54:46;0.82;;;0.63;;
65328;SDS011;51941;52.210;5.158;2023-07-20T10:57:23;0.55;;;0.52;;
65328;SDS011;51941;52.210;5.158;2023-07-20T10:59:50;2.40;;;0.50;;
65328;SDS011;51941;52.210;5.158;2023-07-20T11:02:18;1.02;;;0.40;;
65328;SDS011;51941;52.210;5.158;2023-07-20T11:04:46;1.10;;;0.50;;
65328;SDS011;51941;52.210;5.158;2023-07-20T11:07:17;0.40;;;0.40;;
65328;SDS011;51941;52.210;5.158;2023-07-20T11:10:12;1.83;;;0.60;;
65328;SDS011;51941;52.210;5.158;2023-07-20T11:12:41;0.80;;;0.55;;
65328;SDS011;51941;52.210;5.158;2023-07-20T11:15:31;1.27;;;0.63;;
65328;SDS011;51941;52.210;5.158;2023-07-20T11:18:11;1.48;;;0.47;;
65328;SDS011;51941;52.210;5.158;2023-07-20T11:20:38;1.67;;;0.43;;
65328;SDS011;51941;52.210;5.158;2023-07-20T11:23:05;1.48;;;0.50;;
65328;SDS011;51941;52.210;5.158;2023-07-20T11:25:36;0.77;;;0.45;;
65328;SDS011;51941;52.210;5.158;2023-07-20T11:28:07;1.38;;;0.50;;
65328;SDS011;51941;52.210;5.158;2023-07-20T11:30:36;0.60;;;0.43;;
65328;SDS011;51941;52.210;5.158;2023-07-20T11:33:03;1.48;;;0.50;;
65328;SDS011;51941;52.210;5.158;2023-07-20T11:35:30;1.13;;;0.80;;
65328;SDS011;51941;52.210;5.158;2023-07-20T11:37:57;0.65;;;0.60;;
65328;SDS011;51941;52.210;5.158;2023-07-20T11:40:24;2.22;;;0.70;;
65328;SDS011;51941;52.210;5.158;2023-07-20T11:42:50;0.75;;;0.40;;
65328;SDS011;51941;52.210;5.158;2023-07-20T11:45:20;0.77;;;0.40;;
65328;SDS011;51941;52.210;5.158;2023-07-20T11:47:47;1.80;;;0.70;;
65328;SDS011;51941;52.210;5.158;2023-07-20T11:50:13;0.75;;;0.40;;
65328;SDS011;51941;52.210;5.158;2023-07-20T11:52:41;1.38;;;0.52;;
65328;SDS011;51941;52.210;5.158;2023-07-20T11:55:08;1.00;;;0.57;;
65328;SDS011;51941;52.210;5.158;2023-07-20T11:57:36;3.10;;;2.42;;
65328;SDS011;51941;52.210;5.158;2023-07-20T12:00:04;1.38;;;1.00;;
65328;SDS011;51941;52.210;5.158;2023-07-20T12:02:38;1.77;;;0.80;;
65328;SDS011;51941;52.210;5.158;2023-07-20T12:07:34;1.08;;;0.50;;
65328;SDS011;51941;52.210;5.158;2023-07-20T12:10:05;0.70;;;0.57;;
65328;SDS011;51941;52.210;5.158;2023-07-20T12:12:33;0.90;;;0.52;;
65328;SDS011;51941;52.210;5.158;2023-07-20T12:15:13;1.08;;;0.65;;
65328;SDS011;51941;52.210;5.158;2023-07-20T12:17:45;0.90;;;0.50;;
65328;SDS011;51941;52.210;5.158;2023-07-20T12:20:12;1.90;;;0.60;;
65328;SDS011;51941;52.210;5.158;2023-07-20T12:22:39;2.63;;;0.80;;
65328;SDS011;51941;52.210;5.158;2023-07-20T12:25:07;2.38;;;1.27;;
65328;SDS011;51941;52.210;5.158;2023-07-20T12:27:36;1.43;;;0.70;;
65328;SDS011;51941;52.210;5.158;2023-07-20T12:30:04;2.20;;;1.00;;
65328;SDS011;51941;52.210;5.158;2023-07-20T12:32:32;1.02;;;0.70;;
65328;SDS011;51941;52.210;5.158;2023-07-20T12:35:05;2.08;;;0.70;;
65328;SDS011;51941;52.210;5.158;2023-07-20T12:39:59;0.73;;;0.60;;
65328;SDS011;51941;52.210;5.158;2023-07-20T12:42:26;1.02;;;0.60;;
65328;SDS011;51941;52.210;5.158;2023-07-20T12:44:53;0.82;;;0.50;;
65328;SDS011;51941;52.210;5.158;2023-07-20T12:47:19;0.82;;;0.55;;
65328;SDS011;51941;52.210;5.158;2023-07-20T12:49:46;0.95;;;0.47;;
65328;SDS011;51941;52.210;5.158;2023-07-20T12:52:14;0.57;;;0.40;;
65328;SDS011;51941;52.210;5.158;2023-07-20T12:54:41;2.10;;;0.55;;
65328;SDS011;51941;52.210;5.158;2023-07-20T12:57:08;1.02;;;0.60;;
65328;SDS011;51941;52.210;5.158;2023-07-20T12:59:34;1.05;;;0.60;;
65328;SDS011;51941;52.210;5.158;2023-07-20T13:02:01;0.98;;;0.40;;
65328;SDS011;51941;52.210;5.158;2023-07-20T13:04:28;0.75;;;0.50;;
65328;SDS011;51941;52.210;5.158;2023-07-20T13:06:55;1.25;;;0.40;;
65328;SDS011;51941;52.210;5.158;2023-07-20T13:09:25;0.80;;;0.50;;
65328;SDS011;51941;52.210;5.158;2023-07-20T13:11:51;3.13;;;0.60;;
65328;SDS011;51941;52.210;5.158;2023-07-20T13:14:18;1.02;;;0.35;;
65328;SDS011;51941;52.210;5.158;2023-07-20T13:16:45;0.77;;;0.50;;
65328;SDS011;51941;52.210;5.158;2023-07-20T13:19:12;0.60;;;0.30;;
65328;SDS011;51941;52.210;5.158;2023-07-20T13:21:39;1.45;;;0.50;;
65328;SDS011;51941;52.210;5.158;2023-07-20T13:24:05;0.82;;;0.38;;
65328;SDS011;51941;52.210;5.158;2023-07-20T13:26:34;1.10;;;0.52;;
65328;SDS011;51941;52.210;5.158;2023-07-20T13:29:01;0.57;;;0.40;;
65328;SDS011;51941;52.210;5.158;2023-07-20T13:31:27;0.73;;;0.30;;
65328;SDS011;51941;52.210;5.158;2023-07-20T13:33:54;0.75;;;0.47;;
65328;SDS011;51941;52.210;5.158;2023-07-20T13:36:21;0.30;;;0.30;;
65328;SDS011;51941;52.210;5.158;2023-07-20T13:38:48;0.65;;;0.40;;
65328;SDS011;51941;52.210;5.158;2023-07-20T13:41:15;0.57;;;0.43;;
65328;SDS011;51941;52.210;5.158;2023-07-20T13:43:43;1.42;;;0.40;;
65328;SDS011;51941;52.210;5.158;2023-07-20T13:46:10;0.40;;;0.30;;
65328;SDS011;51941;52.210;5.158;2023-07-20T13:48:37;0.93;;;0.50;;
65328;SDS011;51941;52.210;5.158;2023-07-20T13:51:04;0.60;;;0.30;;
65328;SDS011;51941;52.210;5.158;2023-07-20T13:53:31;2.00;;;0.47;;
65328;SDS011;51941;52.210;5.158;2023-07-20T13:55:58;0.50;;;0.30;;
65328;SDS011;51941;52.210;5.158;2023-07-20T13:58:24;2.38;;;0.40;;
65328;SDS011;51941;52.210;5.158;2023-07-20T14:00:52;1.38;;;0.30;;
65328;SDS011;51941;52.210;5.158;2023-07-20T14:03:20;0.70;;;0.30;;
65328;SDS011;51941;52.210;5.158;2023-07-20T14:05:47;0.80;;;0.50;;
65328;SDS011;51941;52.210;5.158;2023-07-20T14:08:14;0.63;;;0.50;;
65328;SDS011;51941;52.210;5.158;2023-07-20T14:10:40;1.00;;;0.30;;
65328;SDS011;51941;52.210;5.158;2023-07-20T14:13:07;0.77;;;0.25;;
65328;SDS011;51941;52.210;5.158;2023-07-20T14:15:34;0.60;;;0.40;;
65328;SDS011;51941;52.210;5.158;2023-07-20T14:18:03;1.23;;;0.30;;
65328;SDS011;51941;52.210;5.158;2023-07-20T14:20:29;0.30;;;0.30;;
65328;SDS011;51941;52.210;5.158;2023-07-20T14:22:56;0.30;;;0.30;;
65328;SDS011;51941;52.210;5.158;2023-07-20T14:25:23;0.30;;;0.30;;
65328;SDS011;51941;52.210;5.158;2023-07-20T14:27:50;1.25;;;0.40;;
65328;SDS011;51941;52.210;5.158;2023-07-20T14:30:16;1.13;;;0.60;;
65328;SDS011;51941;52.210;5.158;2023-07-20T14:32:43;0.50;;;0.40;;
65328;SDS011;51941;52.210;5.158;2023-07-20T14:35:12;1.45;;;0.30;;
65328;SDS011;51941;52.210;5.158;2023-07-20T14:37:39;2.08;;;0.40;;
65328;SDS011;51941;52.210;5.158;2023-07-20T14:40:06;0.40;;;0.38;;
65328;SDS011;51941;52.210;5.158;2023-07-20T14:42:34;0.73;;;0.60;;
65328;SDS011;51941;52.210;5.158;2023-07-20T14:45:00;0.50;;;0.40;;
65328;SDS011;51941;52.210;5.158;2023-07-20T14:47:27;0.47;;;0.32;;
65328;SDS011;51941;52.210;5.158;2023-07-20T14:49:57;0.50;;;0.50;;
65328;SDS011;51941;52.210;5.158;2023-07-20T14:52:25;0.65;;;0.38;;
65328;SDS011;51941;52.210;5.158;2023-07-20T14:54:52;0.88;;;0.50;;
65328;SDS011;51941;52.210;5.158;2023-07-20T14:57:19;0.70;;;0.40;;
65328;SDS011;51941;52.210;5.158;2023-07-20T14:59:49;0.75;;;0.50;;
65328;SDS011;51941;52.210;5.158;2023-07-20T15:02:16;1.27;;;0.47;;
65328;SDS011;51941;52.210;5.158;2023-07-20T15:04:46;0.80;;;0.50;;
65328;SDS011;51941;52.210;5.158;2023-07-20T15:07:14;1.30;;;0.30;;